Time;durP1;ratioP1;P1;durP2;ratioP2;P2;SDS_P1;SDS_P2;PMS_P1;PMS_P2;Temp;Humidity;BMP_temperature;BMP_pressure;BME280_temperature;BME280_humidity;BME280_pressure;Samples;Min_cycle;Max_cycle;Signal;HPM_P1;HPM_P2
2021/06/27 00:01:26;;;;;;;22.93;11.35;;;;;;;16.76;93.43;99207.05;4152478;84;21605;-76
2021/06/27 00:07:27;;;;;;;17.02;12.00;;;;;;;16.78;93.25;99205.26;4149127;84;21502;-77
2021/06/27 00:13:29;;;;;;;19.42;11.93;;;;;;;16.70;92.88;99200.41;4152885;84;21066;-76
2021/06/27 00:19:31;;;;;;;18.30;10.55;;;;;;;16.44;93.04;99205.20;4147668;84;21165;-76
2021/06/27 00:25:35;;;;;;;14.98;10.63;;;;;;;16.35;92.72;99204.84;4117590;85;21059;-76
2021/06/27 00:31:36;;;;;;;19.02;11.88;;;;;;;16.14;92.74;99198.13;4110226;85;20999;-78
2021/06/27 00:37:38;;;;;;;14.63;11.68;;;;;;;16.02;93.08;99193.69;4116811;85;21046;-77
2021/06/27 00:43:39;;;;;;;17.50;10.75;;;;;;;15.85;93.27;99192.61;4258016;82;21016;-77
2021/06/27 00:49:41;;;;;;;13.00;9.98;;;;;;;15.97;94.04;99198.26;4256965;82;21040;-77
2021/06/27 00:55:43;;;;;;;14.38;10.63;;;;;;;16.04;93.64;99204.51;4261278;82;21607;-77
2021/06/27 01:01:44;;;;;;;15.38;8.10;;;;;;;16.10;93.84;99202.88;4257549;82;21584;-77
2021/06/27 01:07:46;;;;;;;12.68;8.53;;;;;;;16.10;93.84;99201.50;4256741;82;20988;-79
2021/06/27 01:13:48;;;;;;;18.07;11.55;;;;;;;16.20;93.95;99211.69;4261755;82;21585;-77
2021/06/27 01:19:49;;;;;;;13.43;10.30;;;;;;;16.23;93.73;99210.88;4261119;82;21260;-77
2021/06/27 01:25:54;;;;;;;18.92;11.10;;;;;;;16.06;92.69;99211.80;4260979;82;21052;-79
2021/06/27 01:31:58;;;;;;;21.17;12.15;;;;;;;15.76;93.07;99217.13;4257078;81;21016;-77
2021/06/27 01:38:01;;;;;;;18.95;11.55;;;;;;;15.60;93.46;99203.81;4261027;82;21027;-77
2021/06/27 01:44:03;;;;;;;17.90;10.88;;;;;;;15.69;93.69;99215.80;4261387;82;21069;-78
2021/06/27 01:50:08;;;;;;;13.70;9.28;;;;;;;15.74;93.69;99211.83;4259800;81;21016;-78
2021/06/27 01:56:12;;;;;;;17.10;10.75;;;;;;;15.64;93.06;99208.70;4259180;82;21076;-79
2021/06/27 02:02:15;;;;;;;17.60;10.45;;;;;;;15.70;93.84;99203.56;4260993;82;21020;-78
2021/06/27 02:08:17;;;;;;;14.98;9.03;;;;;;;15.76;93.84;99204.70;4261378;82;21680;-81
2021/06/27 02:14:19;;;;;;;12.98;9.60;;;;;;;15.83;93.80;99215.72;4260628;82;21012;-78
2021/06/27 02:26:21;;;;;;;14.95;9.30;;;;;;;15.40;92.34;99216.53;4544692;76;22272;-78
2021/06/27 02:32:22;;;;;;;12.10;9.25;;;;;;;15.15;92.69;99220.55;4508190;78;21086;-78
2021/06/27 02:38:25;;;;;;;14.87;9.78;;;;;;;15.19;93.43;99214.44;4500731;78;21688;-78
2021/06/27 02:44:26;;;;;;;15.72;10.23;;;;;;;15.11;92.97;99207.38;4493425;78;21046;-78
2021/06/27 02:50:28;;;;;;;13.08;8.18;;;;;;;15.12;92.98;99204.80;4512031;78;21038;-78
2021/06/27 02:56:29;;;;;;;13.68;9.33;;;;;;;15.13;93.37;99204.98;4496733;78;21038;-78
2021/06/27 03:02:30;;;;;;;13.05;8.73;;;;;;;15.14;93.28;99202.44;4506577;78;21028;-78
2021/06/27 03:08:32;;;;;;;13.08;9.15;;;;;;;15.13;93.41;99201.64;4496870;78;21084;-78
2021/06/27 03:14:33;;;;;;;13.80;8.18;;;;;;;15.23;93.66;99200.03;4501342;78;21478;-78
2021/06/27 03:20:34;;;;;;;12.85;8.45;;;;;;;15.31;93.70;99195.48;4494410;78;21059;-78
2021/06/27 03:26:36;;;;;;;13.58;9.33;;;;;;;15.31;93.38;99204.33;4502841;78;20984;-77
2021/06/27 03:32:37;;;;;;;13.88;10.32;;;;;;;15.01;92.84;99207.61;4507771;78;21041;-78
2021/06/27 03:44:54;;;;;;;11.78;9.30;;;;;;;14.91;93.60;99217.30;4431130;78;1684742;-78
2021/06/27 03:51:06;;;;;;;14.35;9.48;;;;;;;14.91;93.80;99217.30;4259620;81;21042;-78
2021/06/27 03:57:10;;;;;;;12.35;8.50;;;;;;;15.09;94.19;99222.94;4287786;81;21079;-78
2021/06/27 04:03:11;;;;;;;12.65;8.35;;;;;;;15.24;94.26;99217.56;4283803;81;21058;-78
2021/06/27 04:09:13;;;;;;;10.55;8.40;;;;;;;15.15;93.75;99218.58;4279805;81;21031;-79
2021/06/27 04:15:14;;;;;;;12.93;10.30;;;;;;;15.24;94.44;99218.14;4300158;81;21569;-78
2021/06/27 04:21:15;;;;;;;12.23;9.40;;;;;;;15.26;94.13;99199.23;4286660;81;21047;-79
2021/06/27 04:27:18;;;;;;;15.55;10.08;;;;;;;15.42;94.73;99206.48;4277899;82;21495;-78
2021/06/27 04:33:19;;;;;;;11.93;9.38;;;;;;;15.57;94.58;99212.91;4286212;82;21045;-79
2021/06/27 04:39:20;;;;;;;15.23;10.78;;;;;;;15.70;94.62;99206.32;4287667;82;21506;-79
2021/06/27 04:45:22;;;;;;;18.52;12.90;;;;;;;15.86;94.62;99211.34;4283830;82;21055;-78
2021/06/27 04:51:24;;;;;;;23.32;16.15;;;;;;;15.98;94.64;99211.66;4282760;82;20971;-79
2021/06/27 04:57:25;;;;;;;17.82;14.93;;;;;;;16.03;94.69;99198.80;4273890;82;21011;-77
2021/06/27 05:03:26;;;;;;;21.27;13.80;;;;;;;16.08;94.66;99194.83;4283679;82;21023;-78
2021/06/27 05:09:27;;;;;;;20.17;12.55;;;;;;;16.19;94.77;99188.62;4289061;82;21030;-78
2021/06/27 05:15:32;;;;;;;16.12;13.43;;;;;;;16.36;94.73;99185.70;4276211;82;21082;-79
2021/06/27 05:21:34;;;;;;;15.88;12.75;;;;;;;16.52;94.84;99186.58;4282816;82;21082;-78
2021/06/27 05:27:35;;;;;;;13.83;12.23;;;;;;;16.66;94.91;99194.11;4287402;81;20998;-78
2021/06/27 05:33:37;;;;;;;16.35;12.88;;;;;;;16.87;95.26;99190.34;4284738;81;21066;-78
2021/06/27 05:39:38;;;;;;;17.55;12.60;;;;;;;17.09;95.06;99192.46;4283421;81;21023;-78
2021/06/27 05:45:39;;;;;;;19.98;11.45;;;;;;;17.25;94.93;99208.47;4294321;81;21038;-78
2021/06/27 05:51:41;;;;;;;16.15;10.85;;;;;;;17.42;94.99;99205.28;4289207;81;21036;-80
2021/06/27 05:57:43;;;;;;;15.23;13.15;;;;;;;17.54;94.93;99211.70;4281331;81;21975;-78
2021/06/27 06:03:45;;;;;;;18.75;16.02;;;;;;;17.67;94.83;99199.64;4288164;81;21026;-78
2021/06/27 06:09:47;;;;;;;19.60;16.07;;;;;;;17.72;95.10;99208.08;4284360;81;21071;-78
2021/06/27 06:15:49;;;;;;;19.65;16.80;;;;;;;17.81;95.38;99213.28;4188607;83;21077;-78
2021/06/27 06:21:51;;;;;;;19.10;14.73;;;;;;;17.93;95.50;99207.78;4185246;83;21792;-78
2021/06/27 06:27:53;;;;;;;33.98;19.40;;;;;;;18.22;95.63;99213.05;4100526;85;21101;-81
2021/06/27 06:33:56;;;;;;;29.60;20.00;;;;;;;18.44;95.61;99211.52;4141848;84;21641;-79
2021/06/27 06:39:57;;;;;;;19.87;14.87;;;;;;;18.59;95.50;99215.61;4096649;85;21123;-78
2021/06/27 06:45:58;;;;;;;17.65;14.13;;;;;;;18.70;95.17;99224.52;4100241;85;21046;-79
2021/06/27 06:52:07;;;;;;;24.23;15.53;;;;;;;18.80;95.05;99221.38;4057861;86;21617;-79
2021/06/27 06:58:13;;;;;;;18.45;13.75;;;;;;;19.06;94.91;99225.43;4002778;87;21124;-80
2021/06/27 07:04:19;;;;;;;17.98;14.05;;;;;;;19.51;95.22;99218.19;4137608;84;21007;-80
2021/06/27 07:10:26;;;;;;;18.25;15.32;;;;;;;19.92;94.99;99228.19;4082768;87;21126;-79
2021/06/27 07:16:29;;;;;;;17.27;13.65;;;;;;;20.23;93.92;99220.97;4100061;85;21584;-80
2021/06/27 07:22:30;;;;;;;20.95;16.55;;;;;;;20.41;93.09;99221.30;4088622;86;21584;-80
2021/06/27 07:28:32;;;;;;;19.73;15.50;;;;;;;20.88;92.99;99217.69;4092299;85;21329;-80
2021/06/27 07:34:33;;;;;;;14.53;9.53;;;;;;;21.25;92.30;99224.03;4060497;85;77620;-80
2021/06/27 07:40:37;;;;;;;17.95;14.93;;;;;;;21.35;90.96;99227.14;4168072;84;21049;-79
2021/06/27 07:46:38;;;;;;;13.65;11.85;;;;;;;21.58;90.58;99228.25;4168833;84;21071;-79
2021/06/27 07:52:41;;;;;;;18.80;11.73;;;;;;;21.56;88.98;99230.69;4168057;84;21091;-81
2021/06/27 07:58:43;;;;;;;15.15;11.70;;;;;;;21.48;88.34;99231.35;4170321;84;21060;-79
2021/06/27 08:04:44;;;;;;;11.83;10.63;;;;;;;21.66;88.84;99233.78;4171481;84;21042;-81
2021/06/27 08:10:45;;;;;;;12.13;9.55;;;;;;;21.83;87.92;99234.52;4168346;84;21029;-81
2021/06/27 08:16:46;;;;;;;12.63;10.55;;;;;;;21.89;87.32;99234.73;4167404;84;22206;-79
2021/06/27 08:22:49;;;;;;;10.45;7.83;;;;;;;22.23;87.28;99223.09;4172389;83;21076;-80
2021/06/27 08:28:54;;;;;;;10.55;8.73;;;;;;;22.55;86.04;99218.64;4225033;83;21076;-80
2021/06/27 08:34:56;;;;;;;11.90;9.03;;;;;;;22.74;85.00;99215.45;4090776;86;21076;-80
2021/06/27 08:40:59;;;;;;;14.07;9.08;;;;;;;22.89;83.78;99215.10;4173510;84;21074;-80
2021/06/27 08:47:09;;;;;;;9.25;8.20;;;;;;;22.99;82.69;99210.53;4061976;85;33569;-81
2021/06/27 08:53:11;;;;;;;15.35;11.48;;;;;;;23.28;81.98;99201.16;4012749;87;21069;-80
2021/06/27 08:59:12;;;;;;;13.15;8.88;;;;;;;23.04;78.19;99200.80;4147573;85;21038;-80
2021/06/27 09:05:20;;;;;;;12.03;7.10;;;;;;;23.21;79.42;99198.77;4128837;85;21046;-80
2021/06/27 09:11:23;;;;;;;7.65;6.70;;;;;;;23.46;78.71;99202.05;4143512;85;21045;-80
2021/06/27 09:17:25;;;;;;;7.72;6.65;;;;;;;23.13;77.59;99200.25;4140716;85;21078;-80
2021/06/27 09:23:42;;;;;;;10.75;8.33;;;;;;;23.00;77.38;99197.36;4144969;85;21071;-80
2021/06/27 09:29:44;;;;;;;8.35;7.28;;;;;;;23.23;76.51;99195.52;4172878;84;21173;-80
2021/06/27 09:36:01;;;;;;;11.10;6.90;;;;;;;23.71;75.40;99195.53;4168567;84;21025;-80
2021/06/27 09:42:04;;;;;;;6.30;5.70;;;;;;;24.11;73.67;99192.16;4153780;84;21034;-80
2021/06/27 09:48:07;;;;;;;10.35;6.47;;;;;;;24.45;72.67;99189.13;4180889;84;21017;-80
2021/06/27 09:54:15;;;;;;;5.45;4.70;;;;;;;24.48;71.67;99195.98;4177008;84;21980;-80
2021/06/27 10:00:32;;;;;;;5.33;4.80;;;;;;;24.78;70.08;99189.36;4173690;84;21499;-80
2021/06/27 10:06:36;;;;;;;6.17;4.83;;;;;;;25.05;68.59;99181.76;4170190;84;21515;-81
2021/06/27 10:12:38;;;;;;;9.40;5.47;;;;;;;25.31;67.78;99185.77;4176952;84;21073;-81
2021/06/27 10:18:41;;;;;;;5.62;5.03;;;;;;;25.34;66.27;99182.70;4187547;84;21586;-81
2021/06/27 10:24:42;;;;;;;5.97;4.42;;;;;;;25.33;65.53;99174.91;4166313;84;21027;-81
2021/06/27 10:30:44;;;;;;;5.50;4.75;;;;;;;25.88;65.92;99179.73;4153093;84;21134;-81
2021/06/27 10:36:56;;;;;;;4.47;3.90;;;;;;;26.42;60.22;99182.92;4155212;84;21053;-80
2021/06/27 10:43:00;;;;;;;6.50;4.83;;;;;;;26.41;62.53;99168.10;4151562;84;21094;-81
2021/06/27 10:49:02;;;;;;;4.65;4.25;;;;;;;26.16;62.32;99160.14;4149507;84;21059;-81
2021/06/27 10:55:28;;;;;;;5.72;4.30;;;;;;;25.68;61.84;99152.25;4153508;84;21574;-84
2021/06/27 11:01:29;;;;;;;5.27;3.90;;;;;;;26.14;61.63;99140.98;4120495;84;21090;-81
2021/06/27 11:07:42;;;;;;;6.15;3.98;;;;;;;26.84;62.15;99132.42;4101924;81;26609;-80
2021/06/27 11:14:05;;;;;;;4.87;4.37;;;;;;;27.36;60.30;99135.06;4100462;85;20983;-81
2021/06/27 11:20:23;;;;;;;4.58;4.17;;;;;;;28.16;59.95;99140.20;4095095;85;21045;-80
2021/06/27 11:26:52;;;;;;;4.33;3.70;;;;;;;28.55;58.95;99139.47;4122378;84;21616;-82
2021/06/27 11:33:18;;;;;;;6.58;4.87;;;;;;;28.94;58.65;99127.27;4029036;86;21013;-80
2021/06/27 11:39:56;;;;;;;4.28;3.83;;;;;;;28.75;56.23;99119.73;4045331;86;21026;-81
2021/06/27 11:46:02;;;;;;;6.00;4.92;;;;;;;29.22;55.10;99114.89;4045042;86;21014;-79
2021/06/27 11:52:12;;;;;;;8.30;4.85;;;;;;;29.45;54.83;99115.22;4033525;87;21021;-83
2021/06/27 11:58:23;;;;;;;4.70;4.28;;;;;;;29.42;54.09;99109.17;4032637;87;21157;-80
2021/06/27 12:04:51;;;;;;;6.53;4.80;;;;;;;29.62;53.76;99098.58;4024699;87;21018;-81
2021/06/27 12:11:00;;;;;;;7.28;6.03;;;;;;;29.06;46.34;99096.55;4003739;88;21091;-81
2021/06/27 12:17:01;;;;;;;5.42;4.45;;;;;;;28.13;49.38;99096.16;3981114;88;21055;-78
2021/06/27 12:23:08;;;;;;;6.72;5.00;;;;;;;27.94;50.90;99090.64;4048849;86;21665;-80
2021/06/27 12:29:10;;;;;;;6.22;4.97;;;;;;;27.47;51.33;99089.62;4044441;86;21958;-79
2021/06/27 12:35:12;;;;;;;5.33;4.83;;;;;;;27.04;51.91;99089.00;4025689;87;21035;-80
2021/06/27 12:41:25;;;;;;;9.03;5.40;;;;;;;26.69;52.03;99090.09;4035195;87;21056;-80
2021/06/27 12:47:30;;;;;;;6.17;5.58;;;;;;;26.40;50.89;99087.97;4034330;87;21081;-85
2021/06/27 12:53:32;;;;;;;5.58;5.00;;;;;;;26.24;51.09;99082.78;4070073;85;21592;-81
2021/06/27 12:59:43;;;;;;;20.08;5.42;;;;;;;26.19;50.24;99083.44;4031591;87;21038;-80
2021/06/27 13:06:00;;;;;;;5.65;5.10;;;;;;;26.02;51.06;99085.89;4003384;87;20999;-84
2021/06/27 13:12:17;;;;;;;5.33;4.35;;;;;;;26.02;51.49;99083.09;3981650;88;21097;-80
2021/06/27 13:18:23;;;;;;;5.47;4.87;;;;;;;26.13;51.97;99088.94;4039506;86;21038;-80
2021/06/27 13:24:24;;;;;;;5.30;4.80;;;;;;;26.03;52.11;99072.63;4043837;85;21087;-84
2021/06/27 13:30:27;;;;;;;6.45;4.80;;;;;;;26.02;52.55;99071.87;4002684;87;21164;-80
2021/06/27 13:36:32;;;;;;;5.87;4.42;;;;;;;25.85;52.42;99065.09;4007339;87;21062;-81
2021/06/27 13:42:33;;;;;;;5.87;4.97;;;;;;;25.76;52.63;99053.14;4003243;86;21049;-79
2021/06/27 13:48:34;;;;;;;6.83;4.65;;;;;;;25.59;52.13;99055.55;4005381;87;21096;-80
2021/06/27 13:54:38;;;;;;;4.60;4.15;;;;;;;25.47;50.05;99059.34;4004711;87;21042;-79
2021/06/27 14:00:41;;;;;;;4.92;3.98;;;;;;;25.50;50.76;99056.21;4001020;87;21181;-83
2021/06/27 14:06:47;;;;;;;6.08;4.87;;;;;;;25.55;49.14;99056.97;3999701;87;21147;-77
2021/06/27 14:12:56;;;;;;;4.78;4.28;;;;;;;25.55;49.01;99050.75;4002974;87;21082;-81
2021/06/27 14:18:55;;;;;;;;;;;;;;;25.59;48.80;99043.58;4006968;87;21165;-82
2021/06/27 14:24:58;;;;;;;4.70;4.05;;;;;;;25.65;48.85;99050.09;4004873;87;20591;-80
2021/06/27 14:31:04;;;;;;;6.78;4.37;;;;;;;25.67;47.86;99047.56;4019549;87;21103;-80
2021/06/27 14:37:05;;;;;;;4.37;3.95;;;;;;;25.67;46.49;99044.14;4019378;87;21111;-80
2021/06/27 14:43:08;;;;;;;3.70;3.35;;;;;;;25.74;49.13;99050.81;4013652;87;21111;-81
2021/06/27 14:49:14;;;;;;;4.58;3.52;;;;;;;25.70;49.91;99053.65;3994142;87;21123;-80
2021/06/27 14:55:20;;;;;;;3.50;3.20;;;;;;;25.71;49.11;99043.36;4012938;87;21099;-81
2021/06/27 15:01:23;;;;;;;3.95;3.35;;;;;;;25.73;49.40;99036.62;4011083;87;21072;-79
2021/06/27 15:07:24;;;;;;;6.80;5.05;;;;;;;25.69;48.12;99032.45;4015188;87;21517;-81
2021/06/27 15:13:30;;;;;;;6.40;4.65;;;;;;;25.81;49.06;99034.24;4021401;87;21593;-81
2021/06/27 15:19:31;;;;;;;;;;;;;;;25.60;50.77;99043.72;4022363;87;21036;-81
2021/06/27 15:25:33;;;;;;;6.70;6.00;;;;;;;25.40;52.29;99045.66;4020303;87;20165;-78
2021/06/27 15:31:34;;;;;;;5.28;4.60;;;;;;;24.76;53.75;99032.30;4041077;86;21584;-80
2021/06/27 15:37:36;;;;;;;8.35;6.00;;;;;;;24.76;53.75;99032.30;4039021;86;21082;-80
2021/06/27 15:43:37;;;;;;;6.55;5.83;;;;;;;24.67;54.32;99042.12;3942815;86;3707383;-82
2021/06/27 15:49:39;;;;;;;6.40;5.80;;;;;;;24.46;54.81;99046.61;4214994;83;21002;-84
2021/06/27 15:55:41;;;;;;;7.53;5.83;;;;;;;24.32;55.38;99036.80;4196174;83;21148;-81
2021/06/27 16:01:43;;;;;;;6.80;5.40;;;;;;;24.20;55.77;99030.74;4194173;83;21068;-80
2021/06/27 16:07:46;;;;;;;6.40;5.40;;;;;;;24.10;56.26;99036.16;4216083;83;21086;-82
2021/06/27 16:13:49;;;;;;;7.70;5.92;;;;;;;23.93;56.71;99025.72;4216317;83;20968;-81
2021/06/27 16:19:51;;;;;;;6.58;5.25;;;;;;;23.88;57.11;99036.12;4224434;83;21073;-82
2021/06/27 16:25:52;;;;;;;6.53;5.20;;;;;;;23.79;57.34;99035.46;4207629;83;21113;-81
2021/06/27 16:31:56;;;;;;;6.12;5.53;;;;;;;23.74;57.88;99039.50;4060838;86;21048;-81
2021/06/27 16:37:58;;;;;;;5.80;5.30;;;;;;;23.63;58.14;99035.75;4058502;86;21063;-82
2021/06/27 16:44:01;;;;;;;6.15;5.55;;;;;;;23.59;58.53;99052.48;4062293;86;21052;-82
2021/06/27 16:50:11;;;;;;;5.92;5.40;;;;;;;23.51;58.81;99049.84;4059122;86;21389;-80
2021/06/27 16:56:14;;;;;;;8.53;5.83;;;;;;;23.43;58.96;99047.16;3946632;86;9999715;-81
2021/06/27 17:02:16;;;;;;;6.10;5.50;;;;;;;23.35;59.08;99055.66;4064784;86;21112;-82
2021/06/27 17:08:17;;;;;;;6.28;5.67;;;;;;;23.31;59.31;99064.78;4065237;86;21068;-84
2021/06/27 17:14:19;;;;;;;6.15;5.55;;;;;;;23.26;59.35;99057.78;4065518;86;21029;-82
2021/06/27 17:20:20;;;;;;;9.73;5.85;;;;;;;23.22;59.39;99061.31;4063519;86;21029;-81
2021/06/27 17:26:27;;;;;;;6.05;5.30;;;;;;;23.18;59.76;99063.45;4083925;85;21486;-82
2021/06/27 17:32:28;;;;;;;6.15;5.03;;;;;;;23.14;60.00;99065.61;4082200;85;22090;-79
2021/06/27 17:38:30;;;;;;;7.22;4.92;;;;;;;23.03;60.10;99052.06;4094762;85;21101;-81
2021/06/27 17:44:31;;;;;;;6.03;5.12;;;;;;;22.98;60.37;99053.27;4135470;84;21079;-81
2021/06/27 17:50:32;;;;;;;7.35;5.30;;;;;;;22.91;60.57;99042.38;4101990;85;20996;-82
2021/06/27 17:56:36;;;;;;;6.22;5.62;;;;;;;22.80;60.97;99053.92;4099667;85;21109;-82
2021/06/27 18:02:41;;;;;;;7.00;5.85;;;;;;;22.63;61.34;99049.77;4093492;85;20943;-82
2021/06/27 18:08:47;;;;;;;6.08;5.53;;;;;;;22.57;61.55;99046.63;4094203;84;21060;-82
2021/06/27 18:14:49;;;;;;;6.22;5.62;;;;;;;22.43;61.90;99038.73;4136728;85;21054;-82
2021/06/27 18:20:50;;;;;;;7.08;6.37;;;;;;;22.28;62.56;99040.48;4095776;85;21112;-82
2021/06/27 18:26:52;;;;;;;7.67;5.80;;;;;;;22.23;62.94;99032.09;4099032;85;21112;-82
2021/06/27 18:32:53;;;;;;;7.42;6.72;;;;;;;22.16;63.53;99043.47;4129346;84;21110;-81
2021/06/27 18:38:55;;;;;;;7.95;7.12;;;;;;;22.02;64.00;99047.38;4097931;85;21510;-81
2021/06/27 18:44:57;;;;;;;8.50;7.20;;;;;;;21.78;64.42;99044.80;4102133;85;21069;-80
2021/06/27 18:50:58;;;;;;;12.20;7.97;;;;;;;21.50;65.32;99050.66;4114702;85;21099;-82
2021/06/27 18:56:59;;;;;;;10.68;8.03;;;;;;;21.22;65.83;99060.67;4008032;85;10000474;-81
2021/06/27 19:03:03;;;;;;;9.35;7.87;;;;;;;21.04;66.42;99059.05;4120635;85;21152;-80
2021/06/27 19:09:06;;;;;;;11.12;8.38;;;;;;;20.92;66.83;99072.27;4126573;84;21052;-81
2021/06/27 19:15:09;;;;;;;8.98;8.05;;;;;;;20.69;67.43;99080.90;4064239;86;21004;-81
2021/06/27 19:21:10;;;;;;;8.58;7.80;;;;;;;20.60;68.30;99087.72;4101749;85;20985;-81
2021/06/27 19:27:12;;;;;;;14.10;9.03;;;;;;;20.46;68.94;99095.06;4093934;85;21026;-81
2021/06/27 19:33:14;;;;;;;12.98;11.38;;;;;;;20.24;69.41;99099.62;4094831;85;21407;-81
2021/06/27 19:39:15;;;;;;;15.13;11.95;;;;;;;20.02;70.14;99097.97;4100796;85;21100;-81
2021/06/27 19:45:16;;;;;;;11.25;9.95;;;;;;;20.01;70.43;99087.30;4100856;85;21061;-81
2021/06/27 19:51:26;;;;;;;15.32;11.25;;;;;;;19.75;71.36;99096.05;4139257;84;21062;-81
2021/06/27 19:57:31;;;;;;;14.38;10.32;;;;;;;19.56;71.69;99101.70;4118904;84;21130;-85
2021/06/27 20:03:33;;;;;;;15.68;11.63;;;;;;;19.54;72.11;99110.45;4088279;85;21203;-82
2021/06/27 20:09:39;;;;;;;19.12;14.43;;;;;;;19.48;72.66;99105.22;4085172;86;21036;-81
2021/06/27 20:15:42;;;;;;;16.85;12.55;;;;;;;19.30;72.79;99113.77;4115487;85;21061;-80
2021/06/27 20:21:43;;;;;;;20.43;12.82;;;;;;;19.27;73.26;99120.16;4128263;85;21029;-82
2021/06/27 20:27:46;;;;;;;14.87;12.78;;;;;;;19.19;73.59;99120.92;4119785;85;21164;-81
2021/06/27 20:33:53;;;;;;;17.07;13.10;;;;;;;19.03;73.91;99122.25;4089048;86;21146;-81
2021/06/27 20:39:51;;;;;;;16.45;12.07;;;;;;;18.81;74.53;99124.51;4091329;86;21065;-81
2021/06/27 20:45:53;;;;;;;15.95;12.98;;;;;;;18.59;75.05;99127.68;4088808;86;21465;-81
2021/06/27 20:51:54;;;;;;;15.75;13.75;;;;;;;18.45;75.46;99118.84;4089397;86;21028;-80
2021/06/27 20:57:56;;;;;;;15.63;13.55;;;;;;;18.35;76.25;99120.56;4090225;86;21105;-82
2021/06/27 21:03:57;;;;;;;23.15;12.03;;;;;;;18.32;76.76;99124.81;4087036;86;21073;-81
2021/06/27 21:10:01;;;;;;;12.78;11.40;;;;;;;18.29;77.22;99136.73;4089592;86;21045;-80
2021/06/27 21:16:10;;;;;;;21.07;15.05;;;;;;;18.39;77.62;99146.27;4089198;86;21472;-82
2021/06/27 21:22:10;;;;;;;23.52;15.38;;;;;;;18.11;77.45;99151.48;4087347;86;21079;-80
2021/06/27 21:28:11;;;;;;;23.32;15.45;;;;;;;17.96;77.88;99146.77;4084667;86;21082;-80
2021/06/27 21:34:12;;;;;;;21.17;14.63;;;;;;;18.00;78.39;99147.52;4099024;86;21072;-81
2021/06/27 21:40:15;;;;;;;22.77;14.07;;;;;;;18.00;78.52;99149.48;4106493;85;21105;-81
2021/06/27 21:46:16;;;;;;;21.80;15.48;;;;;;;17.92;78.70;99141.11;4106050;85;21005;-81
2021/06/27 21:52:18;;;;;;;22.13;16.35;;;;;;;17.75;79.11;99150.48;4107082;85;21540;-82
2021/06/27 21:58:29;;;;;;;18.80;14.58;;;;;;;17.66;79.26;99157.15;4134486;85;21084;-84
2021/06/27 22:04:30;;;;;;;21.87;13.25;;;;;;;17.53;79.69;99154.76;4116683;85;21791;-80
2021/06/27 22:10:33;;;;;;;20.80;14.55;;;;;;;17.60;79.93;99175.43;4129591;85;21231;-81
2021/06/27 22:16:34;;;;;;;26.97;14.58;;;;;;;17.47;80.13;99173.03;4075106;86;21085;-80
2021/06/27 22:22:36;;;;;;;20.57;15.35;;;;;;;17.36;80.20;99181.45;4096823;86;21025;-80
2021/06/27 22:28:38;;;;;;;25.40;17.25;;;;;;;17.20;80.67;99182.64;4089817;86;21120;-83
2021/06/27 22:34:40;;;;;;;25.92;16.65;;;;;;;17.23;80.88;99170.16;4094492;86;21029;-80
2021/06/27 22:40:42;;;;;;;21.62;15.55;;;;;;;17.06;80.95;99166.22;4070711;86;21063;-80
2021/06/27 22:46:44;;;;;;;21.40;16.95;;;;;;;16.94;81.24;99169.53;4050512;86;20998;-83
2021/06/27 22:52:45;;;;;;;21.35;15.30;;;;;;;16.87;81.70;99165.45;4049980;86;21091;-81
2021/06/27 22:58:49;;;;;;;24.23;17.15;;;;;;;16.87;81.93;99166.25;4056740;86;21045;-81
2021/06/27 23:04:50;;;;;;;23.92;17.80;;;;;;;16.85;82.25;99163.11;4055954;86;21032;-81
2021/06/27 23:10:52;;;;;;;21.45;16.93;;;;;;;16.87;82.37;99162.69;4075744;86;21081;-80
2021/06/27 23:16:54;;;;;;;20.70;15.32;;;;;;;16.87;82.46;99164.08;4070812;86;21034;-81
2021/06/27 23:22:56;;;;;;;21.17;15.13;;;;;;;16.75;82.90;99167.38;4067593;86;21092;-81
2021/06/27 23:29:04;;;;;;;23.83;14.00;;;;;;;16.79;83.25;99165.34;4088601;86;21032;-80
2021/06/27 23:35:06;;;;;;;21.62;13.90;;;;;;;16.91;83.38;99167.59;4117263;85;21053;-85
2021/06/27 23:41:09;;;;;;;18.80;14.60;;;;;;;16.83;83.09;99166.90;4123353;85;21079;-80
2021/06/27 23:47:10;;;;;;;22.25;14.25;;;;;;;16.79;83.32;99161.20;4139944;85;21104;-80
2021/06/27 23:53:11;;;;;;;19.73;13.90;;;;;;;16.62;83.59;99173.23;4128404;85;21064;-81
2021/06/27 23:59:13;;;;;;;19.30;13.48;;;;;;;16.52;83.53;99170.00;4102265;85;21088;-80
